Time;durP1;ratioP1;P1;durP2;ratioP2;P2;SDS_P1;SDS_P2;PMS_P1;PMS_P2;Temp;Humidity;BMP_temperature;BMP_pressure;BME280_temperature;BME280_humidity;BME280_pressure;Samples;Min_cycle;Max_cycle;Signal;HPM_P1;HPM_P2
2023/11/13 00:00:28;;;;;;;12.80;7.30;;;;;;;16.74;78.51;99925.71;106395;1256;71058;-87
2023/11/13 00:02:56;;;;;;;15.20;7.70;;;;;;;16.67;79.30;99926.69;106226;1254;60473;-87
2023/11/13 00:05:24;;;;;;;13.60;7.20;;;;;;;16.60;80.16;99928.65;106179;1254;60621;-88
2023/11/13 00:07:59;;;;;;;14.10;7.70;;;;;;;16.68;81.51;99927.65;106334;1254;72686;-89
2023/11/13 00:10:27;;;;;;;13.20;8.10;;;;;;;16.66;82.38;99930.09;106341;1253;67512;-87
2023/11/13 00:12:55;;;;;;;16.10;7.50;;;;;;;16.65;83.15;99932.34;106209;1260;72609;-88
2023/11/13 00:15:23;;;;;;;17.40;7.80;;;;;;;16.77;82.51;99935.34;107777;1258;61671;-87
2023/11/13 00:17:57;;;;;;;15.40;8.90;;;;;;;16.72;79.37;99942.49;106319;1253;60679;-87
2023/11/13 00:20:25;;;;;;;17.50;8.40;;;;;;;16.76;79.16;99942.02;106400;1253;73964;-87
2023/11/13 00:22:59;;;;;;;14.90;7.80;;;;;;;16.77;80.60;99947.50;106480;1257;67736;-86
2023/11/13 00:25:36;;;;;;;14.80;8.10;;;;;;;16.95;79.78;99945.46;106350;1258;71416;-87
2023/11/13 00:28:11;;;;;;;15.30;7.50;;;;;;;17.00;78.34;99945.96;106314;1256;60660;-87
2023/11/13 00:30:47;;;;;;;13.20;7.40;;;;;;;17.01;78.15;99947.64;106339;1256;60350;-87
2023/11/13 00:33:18;;;;;;;15.60;7.80;;;;;;;16.89;79.17;99951.61;106248;1254;73866;-87
2023/11/13 00:35:52;;;;;;;13.00;6.70;;;;;;;16.89;76.29;99953.33;106262;1254;67118;-88
2023/11/13 00:38:26;;;;;;;14.30;7.60;;;;;;;16.91;75.80;99959.59;106420;1255;73112;-86
2023/11/13 00:40:54;;;;;;;12.70;6.50;;;;;;;16.72;77.50;99962.26;106438;1260;60489;-87
2023/11/13 00:43:22;;;;;;;15.70;6.90;;;;;;;16.73;78.06;99970.65;106514;1253;60457;-87
2023/11/13 00:45:55;;;;;;;14.30;7.50;;;;;;;16.81;77.61;99972.39;106544;1253;72631;-88
2023/11/13 00:48:23;;;;;;;13.50;7.20;;;;;;;16.75;75.58;99974.18;106351;1258;67284;-88
2023/11/13 00:50:51;;;;;;;15.20;7.20;;;;;;;16.60;76.53;99979.02;106285;1257;71351;-88
2023/11/13 00:53:19;;;;;;;12.50;6.70;;;;;;;16.30;78.39;99980.85;106275;1259;60641;-87
2023/11/13 00:55:53;;;;;;;15.00;6.90;;;;;;;16.30;77.85;99986.41;106028;1256;60562;-86
2023/11/13 00:58:24;;;;;;;10.20;5.80;;;;;;;16.30;77.65;99986.77;106527;1255;72690;-87
2023/11/13 01:00:52;;;;;;;11.20;6.10;;;;;;;16.25;77.76;99990.34;107160;1254;67206;-87
2023/11/13 01:03:26;;;;;;;11.10;6.80;;;;;;;16.27;77.63;99994.45;106117;1254;72693;-86
2023/11/13 01:05:54;;;;;;;11.60;6.30;;;;;;;16.27;76.37;99994.84;106453;1256;61837;-88
2023/11/13 01:08:23;;;;;;;10.50;5.70;;;;;;;16.20;76.91;100001.54;106314;1253;60499;-87
2023/11/13 01:10:51;;;;;;;13.00;6.70;;;;;;;16.26;76.72;100001.33;106225;1258;72071;-88
2023/11/13 01:13:25;;;;;;;12.20;6.50;;;;;;;16.27;75.74;100004.18;106418;1254;67412;-87
2023/11/13 01:15:53;;;;;;;13.00;6.40;;;;;;;16.11;77.30;100006.91;106272;1254;72688;-87
2023/11/13 01:18:27;;;;;;;10.60;6.00;;;;;;;16.18;77.26;100010.11;106227;1260;60465;-87
2023/11/13 01:20:54;;;;;;;9.30;6.10;;;;;;;16.28;77.51;100011.86;106250;1260;60042;-87
2023/11/13 01:23:28;;;;;;;11.70;6.10;;;;;;;16.10;79.31;100015.57;106890;1253;72992;-87
2023/11/13 01:26:00;;;;;;;9.10;5.50;;;;;;;15.84;80.79;100019.65;106286;1257;67238;-86
2023/11/13 01:28:28;;;;;;;11.50;6.10;;;;;;;15.85;81.30;100025.69;106336;1253;72652;-88
2023/11/13 01:31:02;;;;;;;11.10;6.00;;;;;;;15.84;80.52;100025.45;106227;1253;60375;-88
2023/11/13 01:33:36;;;;;;;9.90;5.80;;;;;;;15.78;81.41;100030.23;106147;1260;60317;-87
2023/11/13 01:36:04;;;;;;;10.30;5.50;;;;;;;15.86;80.85;100038.16;106168;1254;73861;-87
2023/11/13 01:38:33;;;;;;;9.70;5.60;;;;;;;15.88;80.63;100040.85;106361;1259;67147;-86
2023/11/13 01:41:01;;;;;;;13.40;6.10;;;;;;;15.90;77.89;100046.13;106337;1253;72676;-87
2023/11/13 01:43:28;;;;;;;8.00;4.80;;;;;;;15.99;77.04;100044.94;107147;1256;61734;-86
2023/11/13 01:45:56;;;;;;;10.60;5.40;;;;;;;15.91;76.65;100047.02;106649;1256;60371;-87
2023/11/13 01:48:24;;;;;;;9.50;5.20;;;;;;;15.94;77.07;100043.48;106154;1256;72668;-87
2023/11/13 01:50:59;;;;;;;9.20;4.80;;;;;;;15.98;74.85;100046.94;106224;1255;67527;-87
2023/11/13 01:53:27;;;;;;;8.50;4.90;;;;;;;15.73;74.55;100054.27;106362;1260;72729;-86
2023/11/13 01:55:56;;;;;;;6.80;4.50;;;;;;;15.72;76.06;100059.06;106222;1256;60451;-88
2023/11/13 01:58:30;;;;;;;10.60;5.30;;;;;;;15.61;76.61;100064.30;106221;1259;60351;-88
2023/11/13 02:00:58;;;;;;;9.00;5.20;;;;;;;15.46;78.57;100065.04;106718;1260;73919;-88
2023/11/13 02:03:27;;;;;;;8.60;5.00;;;;;;;15.53;78.39;100064.94;106415;1254;67281;-87
2023/11/13 02:05:57;;;;;;;11.20;5.20;;;;;;;15.48;77.43;100071.96;106071;1254;71422;-86
2023/11/13 02:08:32;;;;;;;9.40;5.30;;;;;;;15.72;75.30;100071.17;106303;1253;61657;-87
2023/11/13 02:11:06;;;;;;;7.60;4.30;;;;;;;15.61;76.63;100076.06;106325;1253;60454;-86
2023/11/13 02:13:34;;;;;;;8.20;4.70;;;;;;;15.53;76.41;100079.27;106185;1253;72596;-85
2023/11/13 02:16:12;;;;;;;9.30;4.80;;;;;;;15.56;75.50;100079.69;106185;1253;67248;-85
2023/11/13 02:18:47;;;;;;;8.30;4.70;;;;;;;15.55;76.04;100083.84;106314;1253;75429;-88
2023/11/13 02:21:15;;;;;;;8.80;5.10;;;;;;;15.45;77.01;100090.33;106109;1256;60989;-86
2023/11/13 02:23:46;;;;;;;8.40;4.90;;;;;;;15.49;77.14;100093.80;106002;1253;60531;-86
2023/11/13 02:26:22;;;;;;;10.30;4.80;;;;;;;15.45;76.41;100094.41;107182;1257;72861;-87
2023/11/13 02:28:56;;;;;;;10.20;5.10;;;;;;;15.52;75.81;100098.02;106428;1252;67109;-86
2023/11/13 02:31:24;;;;;;;10.20;5.30;;;;;;;15.52;75.52;100104.73;106472;1257;72479;-87
2023/11/13 02:33:58;;;;;;;8.40;5.00;;;;;;;15.52;74.20;100107.06;106325;1258;60418;-86
2023/11/13 02:36:39;;;;;;;8.90;4.50;;;;;;;15.50;73.40;100109.15;106300;1253;60442;-86
2023/11/13 02:39:13;;;;;;;10.80;5.70;;;;;;;15.52;72.84;100111.46;106290;1253;72875;-86
2023/11/13 02:41:47;;;;;;;11.10;5.40;;;;;;;15.56;71.82;100115.20;106458;1254;68369;-87
2023/11/13 02:44:28;;;;;;;11.60;5.80;;;;;;;15.55;72.32;100114.39;106572;1253;72441;-86
2023/11/13 02:47:02;;;;;;;11.00;5.90;;;;;;;15.65;71.46;100116.73;106217;1253;61221;-88
2023/11/13 02:49:37;;;;;;;11.00;5.90;;;;;;;15.72;70.88;100123.55;107954;1253;59242;-87
2023/11/13 02:52:09;;;;;;;10.90;6.00;;;;;;;15.72;70.21;100121.41;106135;1253;72980;-85
2023/11/13 02:54:43;;;;;;;10.20;5.30;;;;;;;15.59;70.00;100132.41;106341;1260;67089;-87
2023/11/13 02:57:16;;;;;;;11.30;5.80;;;;;;;15.56;70.69;100130.84;106311;1256;73166;-87
2023/11/13 02:59:51;;;;;;;11.70;6.20;;;;;;;15.61;68.15;100140.64;106310;1255;61628;-87
2023/11/13 03:02:20;;;;;;;10.00;5.40;;;;;;;15.42;68.99;100144.45;106252;1256;60364;-86
2023/11/13 03:04:54;;;;;;;11.40;6.30;;;;;;;15.30;69.86;100144.09;106171;1255;72815;-86
2023/11/13 07:07:17;;;;;;;13.40;7.40;;;;;;;14.68;80.17;100417.89;106549;1259;67103;-87
2023/11/13 07:10:01;;;;;;;14.80;8.40;;;;;;;14.76;80.84;100423.56;106566;1257;71431;-88
2023/11/13 07:12:38;;;;;;;13.10;7.60;;;;;;;14.73;81.93;100423.89;106563;1258;60486;-87
2023/11/13 07:15:12;;;;;;;15.20;8.00;;;;;;;14.71;82.16;100419.98;106509;1258;59247;-87
2023/11/13 07:17:49;;;;;;;12.90;8.00;;;;;;;14.90;81.91;100423.29;108102;1253;73970;-87
2023/11/13 07:20:23;;;;;;;15.00;7.90;;;;;;;15.24;80.23;100419.73;106287;1262;68666;-88
2023/11/13 07:22:56;;;;;;;13.70;7.30;;;;;;;15.44;79.17;100420.24;106454;1254;71583;-88
2023/11/13 07:25:32;;;;;;;15.10;7.00;;;;;;;15.53;78.34;100421.67;106513;1259;61785;-87
2023/11/13 07:28:06;;;;;;;14.10;7.40;;;;;;;15.58;77.64;100424.04;106439;1256;60895;-88
2023/11/13 07:30:39;;;;;;;12.80;7.30;;;;;;;15.70;75.33;100426.34;106535;1256;71760;-87
2023/11/13 07:33:17;;;;;;;13.10;6.90;;;;;;;15.69;73.70;100424.15;106527;1258;68436;-88
2023/11/13 07:35:51;;;;;;;15.50;8.10;;;;;;;15.95;73.05;100421.44;106229;1257;72653;-87
2023/11/13 07:38:24;;;;;;;12.20;7.50;;;;;;;16.02;72.23;100424.63;106569;1254;60348;-87
2023/11/13 07:40:58;;;;;;;15.30;7.20;;;;;;;16.12;69.49;100429.45;106723;1254;60485;-88
2023/11/13 07:43:32;;;;;;;12.10;7.70;;;;;;;16.07;68.51;100427.60;106535;1256;73771;-87
2023/11/13 07:46:07;;;;;;;14.00;7.60;;;;;;;16.07;70.04;100430.45;106290;1261;68892;-87
2023/11/13 07:48:41;;;;;;;13.60;7.90;;;;;;;15.81;73.16;100430.01;106478;1259;71428;-89
2023/11/13 07:51:17;;;;;;;15.30;9.40;;;;;;;15.51;73.16;100433.31;106665;1257;60806;-88
2023/11/13 07:53:50;;;;;;;14.00;8.20;;;;;;;15.50;74.09;100430.55;106629;1258;60352;-88
2023/11/13 07:56:25;;;;;;;14.20;8.20;;;;;;;15.46;73.21;100434.45;106750;1258;72647;-88
2023/11/13 07:59:05;;;;;;;14.20;7.50;;;;;;;15.49;72.33;100438.45;106499;1259;68339;-87
2023/11/13 08:01:37;;;;;;;12.40;6.90;;;;;;;15.46;72.19;100437.48;106714;1258;73329;-87
2023/11/13 08:04:11;;;;;;;12.30;7.10;;;;;;;15.36;73.17;100440.23;106403;1259;60564;-88
2023/11/13 08:06:47;;;;;;;11.00;6.50;;;;;;;15.43;76.03;100440.59;106483;1259;60468;-88
2023/11/13 08:09:16;;;;;;;11.50;7.10;;;;;;;15.64;75.91;100439.58;106650;1259;73814;-88
2023/11/13 08:11:48;;;;;;;11.90;6.90;;;;;;;15.72;73.44;100442.91;106786;1258;67098;-90
2023/11/13 08:14:23;;;;;;;11.20;6.70;;;;;;;15.83;73.32;100438.46;106706;1259;75289;-89
2023/11/13 08:16:55;;;;;;;11.30;6.30;;;;;;;15.95;71.74;100441.34;106548;1259;60496;-89
2023/11/13 08:19:29;;;;;;;;;;;;;;;16.05;71.65;100439.32;106729;1260;60841;-89
2023/11/13 08:22:04;;;;;;;10.30;6.10;;;;;;;16.12;70.59;100437.77;106538;1257;74785;-89
2023/11/13 08:24:39;;;;;;;12.10;7.00;;;;;;;16.31;73.11;100439.77;106420;1254;68341;-88
2023/11/13 08:27:15;;;;;;;11.80;6.60;;;;;;;16.43;69.47;100438.67;106705;1259;73835;-88
2023/11/13 08:29:51;;;;;;;11.60;6.40;;;;;;;16.39;69.94;100439.73;106667;1260;60468;-88
2023/11/13 08:32:23;;;;;;;12.60;6.60;;;;;;;16.55;71.48;100435.84;108017;1254;59460;-88
2023/11/13 08:34:56;;;;;;;11.30;7.10;;;;;;;16.73;71.14;100433.32;106472;1258;71602;-88
2023/11/13 08:37:31;;;;;;;11.30;6.90;;;;;;;16.82;69.09;100426.10;106771;1256;67257;-88
2023/11/13 08:40:06;;;;;;;10.10;6.60;;;;;;;16.87;66.53;100424.81;106422;1259;72664;-89
2023/11/13 08:42:43;;;;;;;9.80;5.90;;;;;;;16.88;68.25;100424.55;106504;1258;60859;-89
2023/11/13 08:45:21;;;;;;;10.30;6.10;;;;;;;16.88;68.47;100423.94;106419;1254;60930;-88
2023/11/13 08:47:54;;;;;;;11.30;6.40;;;;;;;16.85;68.89;100426.40;106486;1256;73821;-88
2023/11/13 08:50:28;;;;;;;12.00;6.60;;;;;;;16.88;68.15;100426.37;106483;1259;68303;-90
2023/11/13 08:53:02;;;;;;;9.10;6.00;;;;;;;17.00;65.92;100435.54;106502;1257;72691;-88
2023/11/13 08:55:36;;;;;;;12.10;6.80;;;;;;;16.93;67.77;100438.84;106495;1257;62159;-89
2023/11/13 08:58:06;;;;;;;8.50;5.60;;;;;;;16.90;66.98;100431.38;106413;1253;247801;-89
2023/11/13 09:00:41;;;;;;;11.60;6.80;;;;;;;16.86;64.02;100426.33;106430;1259;74987;-88
2023/11/13 09:03:09;;;;;;;9.70;6.00;;;;;;;16.88;62.24;100426.63;106311;1254;69297;-89
2023/11/13 09:05:43;;;;;;;11.60;6.80;;;;;;;16.70;61.24;100430.45;106454;1258;73803;-89
2023/11/13 09:08:12;;;;;;;11.40;6.70;;;;;;;16.73;63.14;100432.06;107550;1254;60500;-87
2023/11/13 09:10:44;;;;;;;11.20;5.90;;;;;;;16.77;63.10;100432.00;108697;1254;59273;-87
2023/11/13 09:13:14;;;;;;;10.20;6.00;;;;;;;16.73;62.91;100433.00;106637;1257;71720;-87
2023/11/13 09:15:42;;;;;;;10.30;6.20;;;;;;;16.80;60.77;100435.14;106487;1254;69850;-86
2023/11/13 09:18:10;;;;;;;13.80;6.20;;;;;;;16.92;60.32;100440.52;106521;1254;72644;-88
2023/11/13 09:20:42;;;;;;;11.60;6.30;;;;;;;16.99;59.66;100438.27;106361;1255;61024;-87
2023/11/13 09:23:20;;;;;;;10.40;6.60;;;;;;;17.03;57.41;100443.14;106485;1255;60536;-87
2023/11/13 09:25:48;;;;;;;11.10;6.30;;;;;;;16.94;55.60;100439.05;106477;1254;74026;-87
2023/11/13 09:28:15;;;;;;;10.10;6.20;;;;;;;16.92;56.66;100439.36;106411;1255;68349;-88
2023/11/13 09:30:43;;;;;;;9.10;6.00;;;;;;;16.94;55.65;100441.86;106484;1254;74628;-88
2023/11/13 09:33:17;;;;;;;9.70;6.00;;;;;;;17.15;56.33;100445.47;106548;1254;61178;-87
2023/11/13 09:35:48;;;;;;;9.90;5.80;;;;;;;17.45;54.15;100443.20;106460;1255;61102;-89
2023/11/13 09:38:22;;;;;;;9.90;5.80;;;;;;;17.53;52.34;100445.53;106596;1254;76168;-89
2023/11/13 09:40:54;;;;;;;8.30;5.50;;;;;;;17.57;51.69;100443.73;106791;1259;67213;-88
2023/11/13 09:43:31;;;;;;;9.10;5.50;;;;;;;17.52;51.24;100444.23;106534;1254;72901;-90
2023/11/13 09:46:03;;;;;;;9.50;5.30;;;;;;;17.47;51.97;100445.50;106509;1254;60529;-89
2023/11/13 09:48:31;;;;;;;8.90;5.30;;;;;;;17.60;52.27;100445.98;107826;1254;61688;-89
2023/11/13 09:51:05;;;;;;;10.00;5.50;;;;;;;17.81;51.74;100449.55;108166;1255;74964;-89
2023/11/13 09:53:43;;;;;;;9.50;5.80;;;;;;;17.81;51.45;100449.64;106369;1257;68560;-88
2023/11/13 09:56:15;;;;;;;9.20;5.70;;;;;;;17.74;51.12;100449.64;106414;1258;75245;-88
2023/11/13 09:58:43;;;;;;;8.40;5.20;;;;;;;17.65;51.69;100450.81;106461;1254;63802;-87
2023/11/13 10:01:20;;;;;;;11.20;5.50;;;;;;;17.69;51.57;100444.63;106710;1252;60528;-86
2023/11/13 10:03:48;;;;;;;8.70;5.20;;;;;;;17.71;50.86;100447.32;106869;1257;73814;-87
2023/11/13 10:06:16;;;;;;;10.30;5.40;;;;;;;17.72;50.93;100447.61;106445;1254;68708;-88
2023/11/13 10:08:49;;;;;;;8.00;5.10;;;;;;;17.76;50.57;100442.80;106529;1259;72119;-88
2023/11/13 10:11:28;;;;;;;8.00;5.30;;;;;;;17.74;50.86;100443.58;106894;1254;60562;-87
2023/11/13 10:14:13;;;;;;;8.60;4.90;;;;;;;17.72;51.30;100447.00;106504;1259;60452;-89
2023/11/13 10:16:40;;;;;;;9.30;4.60;;;;;;;17.96;50.40;100450.59;106466;1254;73866;-87
2023/11/13 10:19:14;;;;;;;8.10;4.70;;;;;;;17.87;48.88;100443.88;106339;1254;70902;-88
2023/11/13 10:21:48;;;;;;;8.70;5.30;;;;;;;17.70;48.60;100440.11;106277;1259;74753;-89
2023/11/13 10:24:23;;;;;;;8.70;5.00;;;;;;;17.74;49.24;100439.41;106620;1254;60553;-89
2023/11/13 10:27:07;;;;;;;8.20;4.50;;;;;;;17.82;48.34;100443.87;106526;1254;60480;-89
2023/11/13 10:29:37;;;;;;;7.80;4.40;;;;;;;17.85;48.62;100444.27;106208;1260;75733;-89
2023/11/13 10:32:10;;;;;;;7.70;4.40;;;;;;;17.91;48.14;100438.61;106441;1255;67080;-88
2023/11/13 10:34:43;;;;;;;6.90;4.30;;;;;;;17.88;48.17;100431.70;106447;1254;71436;-88
2023/11/13 10:37:12;;;;;;;7.40;3.80;;;;;;;17.95;47.77;100434.75;106430;1258;61848;-87
2023/11/13 10:39:42;;;;;;;6.80;4.00;;;;;;;18.00;47.60;100435.98;106412;1253;61037;-88
2023/11/13 10:42:26;;;;;;;6.10;3.70;;;;;;;18.17;46.75;100437.16;106396;1259;73841;-87
2023/11/13 10:45:00;;;;;;;5.90;3.70;;;;;;;18.11;46.66;100434.80;106610;1257;67216;-87
2023/11/13 10:47:37;;;;;;;6.40;3.40;;;;;;;18.03;46.77;100438.90;107770;1254;74046;-88
2023/11/13 10:50:18;;;;;;;5.70;3.50;;;;;;;18.13;46.23;100435.84;107199;1255;61112;-88
2023/11/13 10:52:49;;;;;;;4.80;3.70;;;;;;;18.19;45.23;100436.14;106447;1259;60873;-89
2023/11/13 10:55:19;;;;;;;6.70;3.30;;;;;;;18.27;44.55;100433.58;106816;1254;76376;-89
2023/11/13 10:57:47;;;;;;;4.70;3.50;;;;;;;18.47;44.81;100437.10;106558;1258;69701;-89
2023/11/13 11:00:21;;;;;;;3.90;3.20;;;;;;;18.64;44.74;100437.59;106576;1254;75137;-88
2023/11/13 11:02:51;;;;;;;6.30;3.40;;;;;;;18.81;44.28;100440.77;106463;1254;62187;-88
2023/11/13 11:05:23;;;;;;;6.60;3.60;;;;;;;18.62;44.45;100440.77;106441;1261;61984;-88
2023/11/13 11:08:01;;;;;;;5.10;3.60;;;;;;;18.46;44.56;100435.41;106306;1258;74567;-89
2023/11/13 11:10:41;;;;;;;4.10;3.20;;;;;;;18.47;43.41;100434.40;106455;1254;69344;-89
2023/11/13 11:13:21;;;;;;;5.80;3.40;;;;;;;18.36;43.59;100437.80;106319;1257;74196;-89
2023/11/13 11:16:23;;;;;;;6.00;3.60;;;;;;;18.27;44.05;100432.08;107554;1257;61185;-89
2023/11/13 11:19:09;;;;;;;5.20;3.10;;;;;;;18.23;44.45;100435.99;107755;1253;61433;-90
2023/11/13 11:22:00;;;;;;;5.70;3.10;;;;;;;18.30;44.13;100434.48;106590;1254;74656;-89
2023/11/13 11:24:58;;;;;;;6.90;3.50;;;;;;;18.28;43.68;100431.50;106554;1260;70656;-88
2023/11/13 11:27:48;;;;;;;4.40;3.10;;;;;;;18.48;43.45;100422.73;106639;1254;74192;-89
2023/11/13 11:30:41;;;;;;;4.80;3.40;;;;;;;18.47;43.61;100415.98;106876;1253;61698;-89
2023/11/13 11:33:24;;;;;;;5.50;3.50;;;;;;;18.63;44.06;100414.07;106725;1254;60919;-88
2023/11/13 11:36:13;;;;;;;5.40;3.20;;;;;;;18.61;43.45;100412.41;106218;1259;74748;-88
2023/11/13 11:38:52;;;;;;;4.30;3.10;;;;;;;18.70;43.30;100409.43;106307;1260;67564;-88
2023/11/13 11:41:51;;;;;;;5.40;3.30;;;;;;;18.84;42.99;100410.05;106760;1254;73314;-88
2023/11/13 11:44:35;;;;;;;4.50;3.00;;;;;;;19.06;42.22;100410.40;106816;1254;61791;-86
2023/11/13 11:47:25;;;;;;;4.70;3.40;;;;;;;18.92;42.09;100408.21;106175;1254;62222;-88
2023/11/13 11:50:06;;;;;;;4.30;2.80;;;;;;;18.83;41.94;100409.06;106531;1254;72583;-88
2023/11/13 11:52:55;;;;;;;5.10;2.40;;;;;;;18.78;42.30;100407.68;106374;1269;68999;-88
2023/11/13 11:55:35;;;;;;;4.20;2.80;;;;;;;18.87;42.10;100404.04;106430;1254;74211;-88
2023/11/13 11:58:19;;;;;;;4.20;2.70;;;;;;;18.88;41.54;100400.46;106414;1257;62226;-87
2023/11/13 12:00:59;;;;;;;4.30;2.80;;;;;;;19.00;41.50;100405.41;106430;1253;62037;-88
2023/11/13 12:03:39;;;;;;;4.10;3.00;;;;;;;19.16;41.69;100396.77;106399;1254;73370;-87
2023/11/13 12:06:19;;;;;;;4.00;2.70;;;;;;;19.25;41.04;100403.68;106487;1253;71581;-87
2023/11/13 12:08:59;;;;;;;4.40;2.60;;;;;;;19.26;40.95;100403.65;106403;1259;74148;-88
2023/11/13 12:11:48;;;;;;;3.60;2.50;;;;;;;19.33;40.52;100408.31;106579;1254;60590;-88
2023/11/13 12:14:31;;;;;;;5.40;2.90;;;;;;;19.28;39.45;100412.81;107027;1254;60426;-89
2023/11/13 12:17:20;;;;;;;3.60;2.60;;;;;;;19.13;38.90;100415.19;106348;1254;73836;-89
2023/11/13 12:20:01;;;;;;;3.10;2.30;;;;;;;19.28;38.90;100415.66;106428;1254;70860;-87
2023/11/13 12:22:56;;;;;;;7.80;2.60;;;;;;;19.28;39.21;100416.21;106407;1253;72692;-87
2023/11/13 12:25:36;;;;;;;3.90;2.50;;;;;;;19.27;39.17;100412.04;106333;1254;60617;-87
2023/11/13 12:28:16;;;;;;;4.70;2.60;;;;;;;19.15;39.57;100410.36;106448;1253;62172;-87
2023/11/13 12:30:56;;;;;;;4.80;2.70;;;;;;;18.88;39.90;100408.69;106230;1258;75824;-89
2023/11/13 12:33:36;;;;;;;3.70;2.30;;;;;;;18.53;40.20;100414.88;106657;1253;68480;-87
2023/11/13 12:36:19;;;;;;;6.60;3.30;;;;;;;18.26;40.90;100421.21;106409;1256;73872;-88
2023/11/13 12:38:59;;;;;;;5.60;3.40;;;;;;;18.10;40.89;100423.94;106456;1261;62487;-88
2023/11/13 12:41:39;;;;;;;4.50;3.10;;;;;;;18.07;40.99;100424.67;106691;1254;61420;-88
2023/11/13 12:44:23;;;;;;;6.10;3.60;;;;;;;17.92;41.76;100425.52;106323;1254;74019;-87
2023/11/13 12:47:05;;;;;;;6.60;3.50;;;;;;;17.72;42.38;100428.43;106446;1253;70964;-88
2023/11/13 12:49:45;;;;;;;6.80;4.10;;;;;;;17.69;42.61;100427.27;106481;1253;74320;-87
2023/11/13 12:52:25;;;;;;;5.70;3.60;;;;;;;17.66;42.93;100423.81;106357;1253;60493;-88
2023/11/13 12:55:04;;;;;;;6.20;4.00;;;;;;;17.46;43.37;100426.36;106754;1253;60858;-88
2023/11/13 12:57:45;;;;;;;20.70;10.40;;;;;;;17.16;44.02;100429.91;106381;1254;75859;-88
2023/11/13 13:00:27;;;;;;;5.70;3.70;;;;;;;17.00;44.70;100427.95;106393;1254;70173;-88
2023/11/13 13:03:07;;;;;;;4.70;3.40;;;;;;;17.11;45.24;100432.20;106503;1254;75794;-88
2023/11/13 13:05:48;;;;;;;5.00;3.20;;;;;;;17.25;45.26;100427.14;107274;1253;62548;-89
2023/11/13 13:08:29;;;;;;;5.40;3.40;;;;;;;17.21;45.45;100423.66;106780;1254;61974;-89
2023/11/13 13:11:10;;;;;;;5.60;3.60;;;;;;;17.14;45.53;100420.98;106241;1254;75830;-88
2023/11/13 13:13:50;;;;;;;5.40;3.70;;;;;;;17.12;45.45;100422.30;106400;1258;67575;-89
2023/11/13 13:16:36;;;;;;;6.10;3.70;;;;;;;17.25;45.53;100419.19;106593;1253;73775;-88
2023/11/13 13:19:20;;;;;;;6.00;3.60;;;;;;;17.19;46.06;100420.81;106391;1253;60957;-88
2023/11/13 13:22:05;;;;;;;10.10;5.40;;;;;;;17.17;46.36;100419.94;106411;1253;61236;-88
2023/11/13 13:24:50;;;;;;;8.50;5.10;;;;;;;17.23;46.51;100424.29;106206;1254;75625;-88
2023/11/13 13:27:29;;;;;;;9.80;5.30;;;;;;;17.28;46.57;100418.34;106684;1254;70852;-88
2023/11/13 13:30:13;;;;;;;11.10;6.40;;;;;;;17.17;46.98;100425.13;108459;1253;72635;-86
2023/11/13 13:32:55;;;;;;;8.20;5.50;;;;;;;16.99;47.50;100426.51;106907;1253;62196;-87
2023/11/13 13:35:37;;;;;;;5.30;4.00;;;;;;;17.03;47.77;100428.01;106275;1253;62262;-87
2023/11/13 13:38:17;;;;;;;5.30;3.70;;;;;;;16.93;48.12;100429.59;106424;1260;75672;-87
2023/11/13 13:40:58;;;;;;;4.00;3.30;;;;;;;16.96;48.23;100425.64;106397;1259;71141;-87
2023/11/13 13:43:38;;;;;;;4.10;3.20;;;;;;;16.91;48.23;100425.96;106445;1257;74938;-88
2023/11/13 13:46:26;;;;;;;4.50;3.20;;;;;;;17.14;47.41;100416.94;106353;1254;64159;-87
2023/11/13 13:49:06;;;;;;;5.90;3.20;;;;;;;17.18;47.03;100414.44;106329;1254;60348;-87
2023/11/13 13:51:46;;;;;;;4.10;3.20;;;;;;;17.13;46.37;100421.40;106288;1254;74978;-87
2023/11/13 13:54:27;;;;;;;4.60;3.50;;;;;;;16.97;46.61;100423.06;106295;1259;67663;-86
2023/11/13 13:57:07;;;;;;;13.50;7.70;;;;;;;16.87;46.88;100424.64;106407;1253;74891;-88
2023/11/13 13:59:47;;;;;;;9.80;6.50;;;;;;;16.82;46.89;100431.23;106325;1257;60452;-87
2023/11/13 14:02:26;;;;;;;5.30;3.70;;;;;;;16.73;46.96;100437.31;106446;1254;61062;-88
2023/11/13 14:05:06;;;;;;;5.30;3.50;;;;;;;16.80;46.96;100442.61;106402;1253;75789;-87
2023/11/13 14:07:34;;;;;;;4.40;3.20;;;;;;;16.92;47.06;100445.27;106444;1253;70221;-88
2023/11/13 14:10:14;;;;;;;5.10;3.60;;;;;;;16.94;46.98;100445.44;106462;1257;74588;-87
2023/11/13 14:12:54;;;;;;;5.90;3.10;;;;;;;17.02;46.71;100445.02;106285;1261;62335;-87
2023/11/13 14:15:35;;;;;;;5.50;3.50;;;;;;;17.03;46.72;100449.41;106347;1253;62472;-88
2023/11/13 14:18:11;;;;;;;3.90;2.90;;;;;;;16.99;46.71;100454.60;106387;1253;76188;-88
2023/11/13 14:20:52;;;;;;;5.50;2.80;;;;;;;16.92;46.92;100452.62;106285;1260;68321;-89
2023/11/13 14:23:32;;;;;;;6.70;2.80;;;;;;;16.89;46.86;100452.98;106356;1253;73600;-87
2023/11/13 14:26:16;;;;;;;5.00;3.10;;;;;;;17.03;46.76;100452.30;106390;1254;62033;-89
2023/11/13 14:28:44;;;;;;;4.40;2.40;;;;;;;17.14;46.60;100452.55;106448;1253;62126;-87
2023/11/13 14:31:24;;;;;;;4.00;2.60;;;;;;;17.04;46.73;100451.98;106402;1253;76135;-87
2023/11/13 14:34:04;;;;;;;4.00;2.50;;;;;;;16.95;46.87;100454.08;106999;1257;71141;-88
2023/11/13 14:36:44;;;;;;;3.10;2.40;;;;;;;16.82;47.03;100453.39;106415;1253;73030;-88
2023/11/13 14:39:14;;;;;;;3.60;2.70;;;;;;;16.55;47.70;100462.12;106371;1253;62105;-88
2023/11/13 14:41:56;;;;;;;3.90;2.50;;;;;;;16.38;48.19;100456.33;106403;1254;62246;-87
2023/11/13 14:44:24;;;;;;;4.20;2.50;;;;;;;16.42;48.24;100456.24;106261;1254;74897;-88
2023/11/13 14:46:58;;;;;;;5.10;2.20;;;;;;;16.50;48.10;100455.90;106460;1253;71010;-87
2023/11/13 14:49:35;;;;;;;4.80;2.40;;;;;;;16.62;47.93;100459.02;106354;1253;74447;-89
2023/11/13 14:52:16;;;;;;;4.00;2.10;;;;;;;16.51;48.22;100460.62;106434;1253;60441;-89
2023/11/13 14:54:58;;;;;;;3.40;1.90;;;;;;;16.57;48.10;100462.09;106413;1253;61439;-88
2023/11/13 14:57:32;;;;;;;3.40;2.30;;;;;;;16.55;48.09;100461.90;106515;1253;75582;-87
2023/11/13 15:00:06;;;;;;;3.40;2.20;;;;;;;16.52;48.18;100462.48;106462;1258;69873;-87
2023/11/13 15:02:50;;;;;;;4.70;1.90;;;;;;;16.68;47.96;100466.81;106288;1253;73997;-88
2023/11/13 15:05:30;;;;;;;8.50;5.70;;;;;;;16.57;48.16;100465.79;106303;1254;60959;-87
